Data for 07/31/2014

Time Sea-Level Adjusted Pressure Absolute Pressure Temperature Relative Humidity Dew Point   
(mb) (inHg) (mb) (inHg) (C) (F) (%) (C) (F)
00:05 1025 30.27 854 25.22 16.9 62.4 45 5 41.1
00:10 1025 30.27 854 25.22 17 62.6 43 4.6 40.2
00:15 1025 30.27 854 25.22 16.9 62.5 43 4.4 40
00:20 1025 30.27 854 25.22 16.9 62.4 43 4.5 40
00:25 1025 30.27 854 25.22 16.9 62.3 43 4.5 40.1
00:30 1025 30.27 854 25.22 16.8 62.3 43 4.4 39.9
00:35 1025 30.27 854 25.22 16.9 62.4 44 4.8 40.7
00:40 1025 30.27 854 25.22 17 62.6 43 4.3 39.8
00:45 1025 30.27 854 25.22 16.7 62.1 44 4.4 39.9
00:50 1025 30.27 854 25.22 16.4 61.4 45 4.5 40
00:55 1025 30.27 854 25.22 16.3 61.3 46 4.7 40.4
01:00 1025 30.27 854 25.22 15.9 60.6 48 5 40.9
01:05 1025 30.27 854 25.22 15.6 60 48 4.7 40.4
01:10 1025 30.27 854 25.22 15.6 60.2 47 4.4 40
01:15 1025 30.27 854 25.22 15.8 60.4 46 4.3 39.8
01:20 1025 30.27 854 25.22 15.9 60.6 45 4.2 39.6
01:25 1025 30.27 854 25.22 16.3 61.3 44 4.1 39.4
01:30 1025 30.27 854 25.22 16.3 61.4 44 4.2 39.6
01:35 1025 30.27 854 25.22 16.3 61.4 44 4.1 39.3
01:40 1025 30.27 854 25.22 16.4 61.6 44 4.3 39.7
01:45 1025 30.27 854 25.22 16.4 61.5 45 4.4 40
01:50 1025 30.27 854 25.22 16.5 61.7 44 4.3 39.7
01:55 1025 30.27 854 25.22 16.1 60.9 46 4.5 40.1
02:00 1025 30.27 854 25.22 15.9 60.5 46 4.3 39.8
02:05 1025 30.27 854 25.22 15.7 60.3 47 4.5 40.2
02:10 1025 30.27 854 25.22 15.6 60 47 4.5 40.1
02:15 1025 30.27 854 25.22 15.6 60 46 4.2 39.6
02:20 1025 30.27 854 25.22 15.6 60.1 47 4.4 39.8
02:25 1025 30.27 854 25.22 15.4 59.8 48 4.6 40.3
02:30 1025 30.27 854 25.22 15.1 59.2 49 4.7 40.4
02:35 1025 30.27 854 25.22 15 59 49 4.4 40
02:40 1025 30.27 854 25.22 15.2 59.3 47 4 39.1
02:45 1025 30.27 854 25.22 15.3 59.5 48 4.5 40.1
02:50 1025 30.27 854 25.22 15.3 59.6 47 4.1 39.4
02:55 1025 30.27 854 25.22 15.4 59.8 48 4.6 40.2
03:00 1025 30.27 854 25.22 15.1 59.2 49 4.5 40.1
03:05 1025 30.27 854 25.22 15.1 59.1 48 4.1 39.4
03:10 1025 30.27 854 25.22 15.2 59.3 48 4.3 39.8
03:15 1025 30.27 854 25.22 15 58.9 49 4.6 40.2
03:20 1025 30.27 854 25.22 14.8 58.6 51 4.7 40.5
03:25 1025 30.27 854 25.22 14.6 58.3 51 4.8 40.6
03:30 1025 30.27 854 25.22 14.4 57.9 52 4.8 40.7
03:35 1025 30.27 854 25.22 14.1 57.4 54 4.9 40.8
03:40 1025 30.27 854 25.22 14 57.2 52 4.4 39.9
03:45 1025 30.27 854 25.22 14.1 57.4 52 4.4 40
03:50 1025 30.27 854 25.22 14.3 57.7 50 4.1 39.3
03:55 1025 30.27 854 25.22 15 59.1 46 3.7 38.7
04:00 1025 30.27 854 25.22 15.6 60.1 46 4.1 39.4
04:05 1025 30.27 854 25.22 15.5 59.8 47 4.3 39.7
04:10 1025 30.27 854 25.22 15.1 59.2 48 4.4 39.9
04:15 1025 30.27 854 25.22 14.9 58.7 50 4.5 40.1
04:20 1025 30.27 854 25.22 14.5 58.1 51 4.6 40.3
04:25 1025 30.27 854 25.22 14.1 57.3 53 4.7 40.4
04:30 1025 30.27 854 25.22 13.7 56.7 55 5 40.9
04:35 1025 30.27 854 25.22 13.3 56 55 4.6 40.3
04:40 1025 30.27 854 25.22 13.4 56 55 4.5 40.1
04:45 1025 30.27 854 25.22 13.6 56.5 52 4 39.3
04:50 1025 30.27 854 25.22 14.2 57.6 50 4 39.3
04:55 1025 30.27 854 25.22 14.6 58.3 50 4.3 39.7
05:00 1025 30.27 854 25.22 14.4 57.9 52 4.7 40.5
05:05 1025 30.27 854 25.22 14 57.2 52 4.4 40
05:10 1025 30.27 854 25.22 13.9 57 55 5.1 41.3
05:15 1025 30.27 854 25.22 13.5 56.4 54 4.6 40.2
05:20 1025 30.27 854 25.22 13.4 56.1 57 5.1 41.1
05:25 1025 30.27 854 25.22 13 55.4 57 4.8 40.6
05:30 1025 30.27 854 25.22 13.4 56 54 4.2 39.5
05:35 1025 30.27 854 25.22 14.2 57.5 49 3.7 38.7
05:40 1025 30.27 854 25.22 14.8 58.6 49 4.4 39.9
05:45 1025 30.27 854 25.22 14.7 58.5 49 4.3 39.7
05:50 1025 30.27 854 25.22 14.7 58.5 49 4.3 39.7
05:55 1025 30.27 854 25.22 14.7 58.5 51 4.9 40.8
06:00 1025 30.27 854 25.22 14.4 58 51 4.6 40.3
06:05 1025 30.27 854 25.22 14.8 58.6 49 4.3 39.7
06:10 1025 30.27 854 25.22 15.3 59.5 50 4.9 40.9
06:15 1025 30.27 854 25.22 15.3 59.5 51 5.2 41.4
06:20 1025 30.27 854 25.22 15.4 59.8 49 5 41
06:25 1025 30.27 854 25.22 15.5 59.8 51 5.5 41.9
06:30 1025 30.27 854 25.22 15.1 59.2 53 5.7 42.3
06:35 1025 30.27 854 25.22 14.7 58.5 54 5.5 41.9
06:40 1025 30.27 854 25.22 15.1 59.3 52 5.3 41.6
06:45 1025 30.27 854 25.22 15.4 59.8 50 5 41.1
06:50 1025 30.27 854 25.22 15.8 60.4 50 5.5 42
06:55 1025 30.27 854 25.22 16 60.8 50 5.5 41.9
07:00 1025 30.27 854 25.22 16.4 61.5 49 5.8 42.4
07:05 1025 30.27 854 25.22 17.2 62.9 46 5.6 42
07:10 1025 30.27 854 25.22 18.2 64.8 41 5 40.9
07:15 1025 30.27 854 25.22 19.2 66.5 38 4.5 40.2
07:20 1025 30.27 854 25.22 19.3 66.7 37 4.5 40.1
07:25 1025 30.27 854 25.22 19.6 67.3 38 5 41
07:30 1025 30.27 854 25.22 20.1 68.2 36 4.8 40.7
07:35 1025 30.27 854 25.22 20.4 68.7 37 5.4 41.8
07:40 1025 30.27 854 25.22 20.5 68.9 36 5.2 41.4
07:45 1025 30.27 855 25.25 20.9 69.5 37 5.6 42.1
07:50 1025 30.27 855 25.25 20.8 69.5 35 4.8 40.7
07:55 1025 30.27 855 25.25 20.6 69.1 35 4.7 40.4
08:00 1025 30.27 855 25.25 20.1 68.2 36 4.7 40.5
08:05 1025 30.27 854 25.22 20 68 36 4.7 40.4
08:10 1025 30.27 854 25.22 19.9 67.8 37 4.7 40.5
08:15 1025 30.27 854 25.22 20.1 68.2 36 4.9 40.9
08:20 1025 30.27 854 25.22 20.8 69.5 35 5 40.9
08:25 1025 30.27 854 25.22 20.8 69.4 39 6.5 43.7
08:30 1025 30.27 854 25.22 20.2 68.4 40 6.3 43.3
08:35 1025 30.27 854 25.22 20.3 68.5 41 6.6 43.9
08:40 1025 30.27 854 25.22 20.8 69.4 39 6.4 43.5
08:45 1025 30.27 854 25.22 21.4 70.4 36 5.9 42.6
08:50 1025 30.27 854 25.22 22.1 71.9 34 5.6 42.1
08:55 1025 30.27 854 25.22 22.3 72.2 33 5.7 42.2
09:00 1025 30.27 854 25.22 22.3 72.2 32 5.2 41.4
09:05 1025 30.27 854 25.22 23.2 73.7 32 5.6 42
09:10 1025 30.27 854 25.22 23.5 74.3 31 5.8 42.4
09:15 1025 30.27 854 25.22 23.7 74.6 31 5.6 42.1
09:20 1025 30.27 854 25.22 24 75.1 30 5.6 42.1
09:25 1025 30.27 854 25.22 24.1 75.5 29 5.3 41.6
09:30 1025 30.27 854 25.22 24.2 75.5 30 5.6 42.1
09:35 1025 30.27 854 25.22 24.2 75.6 29 5.5 41.9
09:40 1025 30.27 854 25.22 24.1 75.4 31 6 42.7
09:45 1025 30.27 854 25.22 24 75.2 31 5.9 42.6
09:50 1025 30.27 854 25.22 24.1 75.4 29 5 41
09:55 1025 30.27 854 25.22 24.4 75.9 30 6.1 43.1
10:00 1025 30.27 854 25.22 24.7 76.5 29 5.6 42.1
10:05 1025 30.27 854 25.22 25.1 77.1 28 5.5 41.9
10:10 1025 30.27 854 25.22 25 77 28 5.3 41.5
10:15 1025 30.27 854 25.22 25.3 77.5 28 5.7 42.3
10:20 1025 30.27 854 25.22 25 76.9 29 6.1 42.9
10:25 1025 30.27 854 25.22 25.1 77.2 28 5.5 41.9
10:30 1025 30.27 854 25.22 25.9 78.5 28 6 42.9
10:35 1025 30.27 854 25.22 26.2 79.2 26 5.2 41.4
10:40 1025 30.27 854 25.22 25.6 78.1 27 5.3 41.6
10:45 1025 30.27 854 25.22 26.2 79.2 26 5.5 41.9
10:50 1025 30.27 854 25.22 26.3 79.4 25 4.7 40.5
10:55 1025 30.27 854 25.22 26.2 79.2 26 5.3 41.6
11:00 1025 30.27 854 25.22 25.6 78 25 4.6 40.3
11:05 1025 30.27 854 25.22 26.1 79 23 3.9 38.9
11:10 1025 30.27 854 25.22 26.5 79.7 23 4 39.3
11:15 1025 30.27 854 25.22 26.9 80.3 21 3.1 37.6
11:20 1025 30.27 854 25.22 27 80.5 22 3.7 38.7
11:25 1024 30.24 854 25.22 27 80.6 22 3.9 38.9
11:30 1024 30.24 854 25.22 27.4 81.3 22 3.9 39.1
11:35 1024 30.24 854 25.22 27.8 82 22 4.4 39.9
11:40 1024 30.24 854 25.22 27.3 81.1 21 3.7 38.6
11:45 1024 30.24 854 25.22 27.6 81.7 22 4.2 39.5
11:50 1024 30.24 853 25.19 27.8 82.1 22 4.2 39.6
11:55 1024 30.24 853 25.19 28.1 82.6 21 4.2 39.6
12:00 1024 30.24 853 25.19 28.5 83.3 21 4.4 39.9
12:05 1024 30.24 853 25.19 29.1 84.3 21 4.8 40.7
12:10 1024 30.24 853 25.19 28.3 82.9 22 4.7 40.5
12:15 1024 30.24 853 25.19 28.5 83.3 21 4.7 40.4
12:20 1024 30.24 853 25.19 29 84.3 21 5 40.9
12:25 1024 30.24 853 25.19 29.6 85.3 20 4.6 40.3
12:30 1024 30.24 853 25.19 29.2 84.6 20 4.4 40
12:35 1024 30.24 853 25.19 29.1 84.3 20 4.3 39.7
12:40 1024 30.24 853 25.19 29.5 85 20 4.6 40.3
12:45 1024 30.24 853 25.19 29.5 85 20 4.4 39.9
12:50 1024 30.24 853 25.19 29.6 85.2 21 5.4 41.8
12:55 1024 30.24 853 25.19 29.7 85.4 18 3.5 38.4
13:00 1024 30.24 853 25.19 30 86 19 4.3 39.8
13:05 1024 30.24 853 25.19 30.5 86.9 18 3.8 38.8
13:10 1024 30.24 853 25.19 30.4 86.6 18 3.6 38.4
13:15 1024 30.24 853 25.19 30.3 86.5 16 2.1 35.8
13:20 1024 30.24 853 25.19 30.5 86.9 14 0.6 33.1
13:25 1024 30.24 853 25.19 30.5 86.8 15 1.1 34
13:30 1023 30.21 853 25.19 30.3 86.6 15 1.4 34.5
13:35 1023 30.21 853 25.19 30.4 86.6 15 1.3 34.4
13:40 1023 30.21 853 25.19 30.2 86.3 14 0.1 32.2
13:45 1023 30.21 853 25.19 29.9 85.8 15 0.7 33.3
13:50 1023 30.21 853 25.19 29.5 85.1 15 0.3 32.6
13:55 1023 30.21 853 25.19 30.4 86.7 15 1.5 34.7
14:00 1023 30.21 853 25.19 30.1 86.2 16 1.8 35.2
14:05 1023 30.21 853 25.19 30.2 86.4 15 0.7 33.3
14:10 1023 30.21 852 25.16 30.7 87.3 16 2.8 37.1
14:15 1023 30.21 852 25.16 30.5 86.9 16 1.8 35.3
14:20 1023 30.21 852 25.16 30.4 86.8 15 1 33.8
14:25 1023 30.21 852 25.16 30.4 86.8 15 1.3 34.3
14:30 1023 30.21 852 25.16 30.6 87.2 15 1.6 34.9
14:35 1023 30.21 852 25.16 30.5 87 15 1.2 34.2
14:40 1023 30.21 852 25.16 30.3 86.6 14 0.6 33.1
14:45 1023 30.21 852 25.16 30.6 87.1 13 -0.1 31.9
14:50 1023 30.21 852 25.16 30.6 87.2 14 0.8 33.4
14:55 1023 30.21 852 25.16 31 87.8 14 0.8 33.5
15:00 1023 30.21 852 25.16 31.1 88 14 0.6 33.1
15:05 1023 30.21 852 25.16 31.2 88.2 15 1.4 34.6
15:10 1023 30.21 852 25.16 31.1 88 14 0.4 32.7
15:15 1023 30.21 852 25.16 31.3 88.3 13 0 32
15:20 1023 30.21 852 25.16 31.7 89 13 0.3 32.6
15:25 1023 30.21 852 25.16 31.4 88.5 13 0.4 32.6
15:30 1023 30.21 852 25.16 31.1 88 14 1.2 34.1
15:35 1023 30.21 852 25.16 30.4 86.8 14 0.2 32.4
15:40 1023 30.21 852 25.16 29.5 85.2 14 -0.3 31.5
15:45 1023 30.21 852 25.16 29.6 85.3 14 -0.2 31.6
15:50 1023 30.21 852 25.16 29.7 85.5 15 0.7 33.3
15:55 1023 30.21 852 25.16 29.6 85.3 15 0.4 32.7
16:00 1023 30.21 852 25.16 29.9 85.9 15 0.8 33.4
16:05 1022 30.18 852 25.16 30.3 86.5 15 1.2 34.2
16:10 1022 30.18 852 25.16 30.4 86.7 15 0.8 33.4
16:15 1023 30.21 852 25.16 30.5 86.8 15 1.2 34.1
16:20 1022 30.18 852 25.16 30.3 86.6 16 1.9 35.4
16:25 1022 30.18 852 25.16 30.3 86.6 15 1.4 34.4
16:30 1022 30.18 852 25.16 30 86.1 15 0.8 33.4
16:35 1022 30.18 852 25.16 29.7 85.5 15 1 33.8
16:40 1022 30.18 852 25.16 29.4 84.9 16 1.6 34.8
16:45 1022 30.18 852 25.16 29.5 85.1 15 0.8 33.5
16:50 1022 30.18 851 25.13 29.9 85.8 17 2.2 35.9
16:55 1022 30.18 851 25.13 30.2 86.4 15 1 33.8
17:00 1022 30.18 851 25.13 30.1 86.2 15 1 33.9
17:05 1022 30.18 851 25.13 30 86.1 14 -0 31.9
17:10 1022 30.18 851 25.13 29.7 85.4 16 1.1 34
17:15 1022 30.18 851 25.13 29.4 85 16 1.3 34.4
17:20 1022 30.18 851 25.13 28.9 84.1 15 0.3 32.5
17:25 1022 30.18 851 25.13 28.4 83.2 15 0 32.1
17:30 1022 30.18 851 25.13 28.3 83 17 1.4 34.5
17:35 1022 30.18 851 25.13 28.2 82.7 17 1.2 34.1
17:40 1022 30.18 851 25.13 28 82.4 18 1.5 34.7
17:45 1022 30.18 851 25.13 28.1 82.5 18 1.9 35.4
17:50 1022 30.18 851 25.13 28.2 82.8 17 1.3 34.3
17:55 1022 30.18 851 25.13 28.4 83.1 18 1.9 35.4
18:00 1022 30.18 851 25.13 28.6 83.4 16 0.3 32.6
18:05 1022 30.18 851 25.13 28.6 83.4 16 0.2 32.4
18:10 1022 30.18 852 25.16 28.4 83.2 18 1.9 35.4
18:15 1022 30.18 852 25.16 28.3 83 17 1.6 34.9
18:20 1022 30.18 852 25.16 28.3 83 19 2.5 36.4
18:25 1022 30.18 852 25.16 28.2 82.8 18 2.2 35.9
18:30 1022 30.18 852 25.16 28.3 82.9 18 2 35.6
18:35 1022 30.18 852 25.16 28.2 82.8 16 0.6 33.1
18:40 1022 30.18 852 25.16 28.1 82.7 18 1.5 34.8
18:45 1023 30.21 852 25.16 28.1 82.7 18 1.8 35.3
18:50 1023 30.21 852 25.16 28.1 82.5 17 1.4 34.4
18:55 1023 30.21 852 25.16 28 82.4 18 1.4 34.6
19:00 1023 30.21 852 25.16 27.9 82.2 17 1 33.9
19:05 1023 30.21 852 25.16 27.9 82.2 17 0.6 33.1
19:10 1023 30.21 852 25.16 27.8 82.1 20 2.8 37
19:15 1023 30.21 852 25.16 27.6 81.8 20 3.1 37.6
19:20 1023 30.21 852 25.16 27.4 81.3 21 3.6 38.5
19:25 1023 30.21 852 25.16 27.1 80.7 22 3.8 38.9
19:30 1023 30.21 852 25.16 26.7 80 22 3.2 37.7
19:35 1023 30.21 852 25.16 25.9 78.6 24 4.1 39.4
19:40 1023 30.21 852 25.16 24.9 76.8 25 3.6 38.5
19:45 1023 30.21 852 25.16 24.7 76.4 25 3.6 38.6
19:50 1023 30.21 852 25.16 24.2 75.6 27 4.3 39.7
19:55 1023 30.21 852 25.16 23.8 74.8 27 4 39.3
20:00 1023 30.21 852 25.16 23.8 74.8 27 3.7 38.7
20:05 1023 30.21 852 25.16 23.6 74.5 27 3.9 39.1
20:10 1023 30.21 852 25.16 23.3 73.9 28 4.2 39.5
20:15 1023 30.21 852 25.16 22.9 73.2 29 4.2 39.5
20:20 1023 30.21 852 25.16 22.7 72.8 29 4.1 39.3
20:25 1023 30.21 852 25.16 22.6 72.7 29 4 39.2
20:30 1023 30.21 852 25.16 22.6 72.8 29 3.9 39
20:35 1023 30.21 852 25.16 22.6 72.6 30 4.1 39.4
20:40 1023 30.21 852 25.16 22.2 71.9 32 4.8 40.7
20:45 1023 30.21 852 25.16 21.4 70.6 34 5.3 41.5
20:50 1023 30.21 852 25.16 21 69.9 35 5 41
20:55 1023 30.21 852 25.16 21 69.8 33 4.1 39.5
21:00 1023 30.21 853 25.19 20.9 69.6 33 4 39.3
21:05 1024 30.24 853 25.19 20.7 69.3 32 3.8 38.8
21:10 1024 30.24 853 25.19 20.8 69.4 32 3.5 38.2
21:15 1024 30.24 853 25.19 20.6 69.2 33 3.8 38.9
21:20 1024 30.24 853 25.19 20.5 68.9 33 3.9 38.9
21:25 1024 30.24 853 25.19 20.3 68.5 35 4.4 39.8
21:30 1024 30.24 853 25.19 20.1 68.1 34 4.1 39.3
21:35 1024 30.24 853 25.19 19.9 67.9 35 4.1 39.4
21:40 1024 30.24 853 25.19 19.7 67.4 33 3.3 37.9
21:45 1024 30.24 853 25.19 19.9 67.9 34 3.6 38.6
21:50 1024 30.24 853 25.19 20.1 68.1 36 4.9 40.8
21:55 1024 30.24 853 25.19 19.8 67.6 35 4.2 39.6
22:00 1024 30.24 853 25.19 19.7 67.5 39 5.7 42.2
22:05 1024 30.24 853 25.19 19.9 67.9 32 3.1 37.5
22:10 1024 30.24 853 25.19 20.3 68.5 33 3.6 38.5
22:15 1024 30.24 853 25.19 20.3 68.5 33 3.7 38.6
22:20 1024 30.24 853 25.19 20.2 68.4 32 3.4 38.1
22:25 1024 30.24 853 25.19 19.7 67.4 38 4.9 40.9
22:30 1024 30.24 853 25.19 18.8 65.9 40 5 41.1
22:35 1024 30.24 853 25.19 18.8 65.8 38 4.2 39.6
22:40 1024 30.24 853 25.19 19 66.3 38 4.5 40.2
22:45 1024 30.24 853 25.19 18.8 65.8 38 4.3 39.7
22:50 1024 30.24 853 25.19 18.4 65.1 36 3.3 38
22:55 1024 30.24 853 25.19 18.4 65.1 37 3.5 38.3
23:00 1024 30.24 853 25.19 18.7 65.7 33 2.5 36.4
23:05 1024 30.24 853 25.19 19 66.1 36 3.8 38.9
23:10 1024 30.24 853 25.19 18.6 65.4 33 2.3 36.2
23:15 1024 30.24 853 25.19 19.1 66.4 33 2.4 36.4
23:20 1024 30.24 853 25.19 19.7 67.4 32 2.7 36.9
23:25 1024 30.24 853 25.19 19.4 66.9 34 3.3 37.9
23:30 1024 30.24 853 25.19 19 66.2 36 3.7 38.7
23:35 1024 30.24 853 25.19 18.9 66 36 3.6 38.4
23:40 1024 30.24 853 25.19 19 66.2 35 3.2 37.7
23:45 1024 30.24 853 25.19 18.9 66.1 36 3.7 38.6
23:50 1024 30.24 853 25.19 18.5 65.3 39 4.4 39.9
23:55 1024 30.24 853 25.19 18 64.4 39 4.1 39.4
24:00 1024 30.24 853 25.19 17.8 64.1 38 3.6 38.5